Aérodrome :
LOGIN :

S'inscrire | Disclaimer

   EN    FR    IT 

 










Légende :    VFR   VFR Marginal   IFR   IFR Intensif   IFR Très Intensif
Visi : 
Plafond : 
>= 8 km
>= 3000ft
5 à 8 km
1000 à 3000 ft
1500m à 5 km
500 à 1000 ft
800 à 1500m
200 à 500 ft
< 800m
< 200 ft
Symboles :   Orages  Brouillard  Fortes neiges  Fortes précipitations  Vent > 20 kt
SIGMETs :   Divers  Orages  Givrage  Turbulence  Onde Orograph.  Cendres Volcan.







- Altitude de l'aérodrome : 13 ft
- Code IATA : LYX
- Voir les cartes d'approche


EGMD - Lydd

DERNIER METAR :
  • 261820Z AUTO 04022KT 9999 OVC011/// 16/14 Q1027

METARs EXPIRÉS :
  • 261750Z AUTO 04021KT 9999 BKN012/// 17/14 Q1027
  • 261720Z 04021KT 9999 BKN012 17/14 Q1027
  • 261650Z 05020KT 9999 SCT013 18/15 Q1027
  • 261620Z 04020KT 9999 FEW013 18/15 Q1026
  • 261550Z 05020KT 9999 FEW014 19/15 Q1026
  • 261520Z 04019KT 9999 SCT013 19/16 Q1026

TAF AMD TAF EGMD
Valide du 26 à 18h jusqu'au 27 à 03h UTC


261750Z 2618/2703 04015KT 9999 BKN012
TEMPO 2618/2624 06018G28KT
BECMG 2621/2624 8000 BKN009
ATIS : +44 1797 322 422
Pas de NOTAMs connus pour ce terrain.



MET'MAP, la Météo Aéronautique d'un coup d'oeil ! - Copyright ORBIFLY Décembre 2007 - Disclaimer

ORBIFLY MET'MAP TEAM :

Programmation & Développement : Alexandra Zaïnal
Conception & Développement : Baudouin d'Aumeries
Co-Programmation & Développement : Marc-Olivier Méhu
Soutien technique & logistique : Manuel Goepfert

Contact : metmap@orbifly.com




SOURCES & CREDITS :

   NOAA